Time;durP1;ratioP1;P1;durP2;ratioP2;P2;SDS_P1;SDS_P2;PMS_P1;PMS_P2;Temp;Humidity;BMP_temperature;BMP_pressure;BME280_temperature;BME280_humidity;BME280_pressure;Samples;Min_cycle;Max_cycle;Signal;HPM_P1;HPM_P2
2021/09/09 00:01:21;;;;;;;19.02;15.10;;;;;;;23.29;44.34;100505.91;1781912;77;21037;-72
2021/09/09 00:03:48;;;;;;;17.75;14.15;;;;;;;23.27;44.36;100514.27;1785781;78;21081;-73
2021/09/09 00:06:15;;;;;;;15.80;14.20;;;;;;;23.27;44.32;100514.27;1805583;77;21733;-72
2021/09/09 00:08:44;;;;;;;17.90;14.43;;;;;;;23.25;44.33;100517.75;1780677;79;21488;-73
2021/09/09 00:11:15;;;;;;;15.48;13.83;;;;;;;23.24;44.37;100516.65;1796756;79;21100;-72
2021/09/09 00:13:42;;;;;;;17.25;15.08;;;;;;;23.23;44.34;100519.05;1791371;77;21096;-73
2021/09/09 00:16:09;;;;;;;16.25;14.05;;;;;;;23.21;44.37;100521.98;1812466;78;21034;-73
2021/09/09 00:18:36;;;;;;;18.82;14.95;;;;;;;23.20;44.40;100525.77;1787050;77;21766;-72
2021/09/09 00:21:04;;;;;;;18.23;15.68;;;;;;;23.19;44.41;100519.22;1800404;79;21055;-73
2021/09/09 00:23:31;;;;;;;16.73;14.83;;;;;;;23.17;44.46;100519.45;1797571;79;20990;-73
2021/09/09 00:25:59;;;;;;;20.70;15.75;;;;;;;23.15;44.49;100518.86;1783766;77;21005;-72
2021/09/09 00:28:25;;;;;;;16.62;14.93;;;;;;;23.14;44.54;100523.45;1805633;77;21021;-72
2021/09/09 00:30:52;;;;;;;15.90;13.98;;;;;;;23.14;44.55;100522.61;1780083;79;21205;-72
2021/09/09 00:33:20;;;;;;;17.23;14.38;;;;;;;23.12;44.63;100517.95;1778619;77;21072;-72
2021/09/09 00:35:47;;;;;;;17.20;15.35;;;;;;;23.10;44.65;100518.21;1795559;79;20998;-71
2021/09/09 00:38:13;;;;;;;17.20;15.18;;;;;;;23.09;44.70;100520.61;1808519;77;21085;-71
2021/09/09 00:40:40;;;;;;;21.37;16.25;;;;;;;23.08;44.74;100524.39;1797292;77;21099;-72
2021/09/09 00:43:09;;;;;;;18.98;16.55;;;;;;;23.08;44.72;100520.83;1791266;79;21565;-71
2021/09/09 00:45:35;;;;;;;17.92;15.10;;;;;;;23.06;44.75;100521.06;1797610;77;21014;-71
2021/09/09 00:48:01;;;;;;;17.67;15.53;;;;;;;23.06;44.69;100522.41;1789466;79;21065;-71
2021/09/09 00:50:28;;;;;;;17.52;15.45;;;;;;;23.05;44.71;100521.31;1804374;79;21062;-73
2021/09/09 00:52:54;;;;;;;17.87;15.18;;;;;;;23.05;44.74;100522.67;1812074;79;21045;-71
2021/09/09 00:55:21;;;;;;;22.30;15.35;;;;;;;23.04;44.78;100523.17;1789939;79;21572;-72
2021/09/09 00:57:48;;;;;;;18.35;15.72;;;;;;;23.03;44.81;100521.54;1802807;77;21538;-71
2021/09/09 01:00:15;;;;;;;18.40;16.15;;;;;;;23.03;44.81;100522.08;1791920;79;21029;-71
2021/09/09 01:02:41;;;;;;;20.85;14.90;;;;;;;23.01;44.86;100521.45;1808955;77;21572;-71
2021/09/09 01:05:08;;;;;;;16.17;14.47;;;;;;;22.96;44.93;100521.59;1793844;78;21531;-72
2021/09/09 01:07:34;;;;;;;20.23;15.40;;;;;;;22.96;44.94;100519.42;1795169;77;21772;-72
2021/09/09 01:10:01;;;;;;;18.20;14.93;;;;;;;22.93;44.95;100521.25;1797526;78;21010;-73
2021/09/09 01:12:27;;;;;;;16.70;14.85;;;;;;;22.92;44.96;100519.59;1790331;77;21104;-73
2021/09/09 01:14:55;;;;;;;19.07;15.15;;;;;;;22.90;44.98;100517.10;1783222;79;21285;-74
2021/09/09 01:17:22;;;;;;;16.35;14.53;;;;;;;22.90;45.00;100517.10;1783921;77;21022;-72
2021/09/09 01:19:48;;;;;;;16.48;14.03;;;;;;;22.89;45.01;100516.82;1788941;79;21531;-72
2021/09/09 01:22:15;;;;;;;16.10;14.25;;;;;;;22.88;45.04;100515.16;1803333;77;21525;-72
2021/09/09 01:24:42;;;;;;;17.90;15.15;;;;;;;22.88;45.03;100517.05;1796894;79;21038;-73
2021/09/09 01:27:08;;;;;;;18.17;15.28;;;;;;;22.86;45.06;100505.08;1795489;79;21087;-74
2021/09/09 01:29:39;;;;;;;16.62;14.80;;;;;;;22.87;45.03;100511.31;1800327;78;21017;-72
2021/09/09 01:32:07;;;;;;;17.25;15.03;;;;;;;22.85;45.06;100514.28;1776082;77;21122;-72
2021/09/09 01:34:34;;;;;;;16.40;13.93;;;;;;;22.86;45.06;100509.68;1791691;77;21069;-73
2021/09/09 01:37:00;;;;;;;16.75;14.70;;;;;;;22.86;45.09;100508.33;1775542;77;21086;-73
2021/09/09 01:39:28;;;;;;;15.48;13.75;;;;;;;22.84;45.09;100508.55;1793176;79;21022;-72
2021/09/09 01:41:56;;;;;;;15.78;14.07;;;;;;;22.83;45.08;100506.91;1759784;79;21040;-72
2021/09/09 01:44:23;;;;;;;16.00;14.33;;;;;;;22.82;45.10;100507.95;1767792;79;21102;-72
2021/09/09 01:46:50;;;;;;;16.52;14.07;;;;;;;22.81;45.10;100503.58;1767071;79;21584;-72
2021/09/09 01:49:18;;;;;;;19.87;14.73;;;;;;;22.82;45.12;100503.89;1764528;79;21038;-72
2021/09/09 01:51:46;;;;;;;17.92;14.58;;;;;;;22.81;45.13;100500.05;1765752;80;21530;-71
2021/09/09 01:54:13;;;;;;;17.42;15.20;;;;;;;22.81;45.10;100500.88;1752239;80;21323;-72
2021/09/09 01:56:41;;;;;;;19.42;14.58;;;;;;;22.78;45.12;100499.45;1770234;80;21106;-72
2021/09/09 01:59:08;;;;;;;18.37;14.28;;;;;;;22.78;45.12;100498.64;1757707;79;21499;-72
2021/09/09 02:01:34;;;;;;;14.85;13.30;;;;;;;22.79;45.12;100498.92;1727179;80;21525;-71
2021/09/09 02:04:03;;;;;;;16.30;14.50;;;;;;;22.80;45.07;100503.30;1747332;80;21025;-72
2021/09/09 02:06:29;;;;;;;18.40;14.35;;;;;;;22.80;45.04;100487.58;1745571;80;21158;-74
2021/09/09 02:08:56;;;;;;;18.85;14.45;;;;;;;22.81;45.53;100490.03;1725029;81;21093;-75
2021/09/09 02:11:24;;;;;;;15.43;13.68;;;;;;;22.85;45.83;100503.95;1779959;78;21028;-75
2021/09/09 02:13:52;;;;;;;16.23;14.53;;;;;;;22.89;45.98;100495.66;1790402;79;21032;-74
2021/09/09 02:16:18;;;;;;;15.18;13.68;;;;;;;22.94;46.03;100497.97;1770808;79;21145;-74
2021/09/09 02:18:46;;;;;;;15.60;13.78;;;;;;;23.01;45.98;100497.06;1770225;80;21032;-74
2021/09/09 02:21:13;;;;;;;15.05;13.43;;;;;;;23.07;45.92;100488.03;1779126;80;21138;-75
2021/09/09 02:23:40;;;;;;;17.55;15.63;;;;;;;23.13;45.84;100491.16;1773216;79;21072;-75
2021/09/09 02:26:08;;;;;;;16.62;13.65;;;;;;;23.18;45.77;100490.45;1773641;80;21575;-74
2021/09/09 02:28:36;;;;;;;16.00;14.40;;;;;;;23.22;45.69;100487.06;1767600;80;21078;-76
2021/09/09 02:31:02;;;;;;;17.70;14.45;;;;;;;23.27;45.60;100491.23;1775245;80;21033;-76
2021/09/09 02:33:30;;;;;;;17.50;13.72;;;;;;;23.30;45.47;100488.06;1764545;80;21500;-79
2021/09/09 02:35:57;;;;;;;18.02;13.70;;;;;;;23.34;45.37;100486.53;1772610;79;21021;-76
2021/09/09 02:38:24;;;;;;;15.43;13.83;;;;;;;23.39;45.27;100493.95;1766117;80;21079;-75
2021/09/09 02:40:50;;;;;;;15.78;14.15;;;;;;;23.43;45.19;100491.59;1771006;80;21052;-76
2021/09/09 02:43:17;;;;;;;15.28;13.68;;;;;;;23.45;45.12;100488.97;1776377;79;21073;-76
2021/09/09 02:45:43;;;;;;;17.00;14.25;;;;;;;23.48;45.12;100492.55;1767703;78;21483;-76
2021/09/09 02:48:10;;;;;;;16.17;14.35;;;;;;;23.51;44.99;100490.73;1769717;80;21024;-75
2021/09/09 02:50:36;;;;;;;17.23;14.50;;;;;;;23.52;44.96;100489.66;1773159;80;21032;-77
2021/09/09 02:53:03;;;;;;;17.90;15.48;;;;;;;23.55;44.89;100496.52;1770143;79;21046;-77
2021/09/09 02:55:30;;;;;;;16.70;13.78;;;;;;;23.56;44.76;100485.95;1766941;78;21137;-76
2021/09/09 02:57:57;;;;;;;20.95;15.93;;;;;;;23.57;44.83;100488.97;1767895;78;21542;-78
2021/09/09 03:00:24;;;;;;;16.73;14.98;;;;;;;23.59;44.74;100489.56;1778759;77;21061;-78
2021/09/09 03:02:50;;;;;;;16.05;14.40;;;;;;;23.59;44.67;100489.56;1787181;79;21016;-78
2021/09/09 03:05:17;;;;;;;17.95;16.00;;;;;;;23.61;44.62;100484.72;1802509;79;21104;-77
2021/09/09 03:07:43;;;;;;;16.52;14.78;;;;;;;23.62;44.59;100493.13;1789731;77;21009;-78
2021/09/09 03:10:10;;;;;;;19.02;15.72;;;;;;;23.63;44.52;100485.31;1794970;79;21025;-78
2021/09/09 03:12:37;;;;;;;18.37;15.65;;;;;;;23.64;44.53;100485.61;1795639;79;20971;-79
2021/09/09 03:15:05;;;;;;;18.12;15.05;;;;;;;23.65;44.46;100488.61;1799605;78;21056;-78
2021/09/09 03:17:32;;;;;;;18.62;15.05;;;;;;;23.67;44.48;100496.52;1796718;79;21076;-76
2021/09/09 03:19:58;;;;;;;19.05;15.35;;;;;;;23.67;44.33;100490.55;1798217;77;21013;-76
2021/09/09 03:22:24;;;;;;;19.42;16.42;;;;;;;23.68;44.53;100490.86;1807230;79;21149;-77
2021/09/09 03:24:51;;;;;;;19.50;16.30;;;;;;;23.70;44.39;100488.73;1798684;77;21482;-78
2021/09/09 03:27:17;;;;;;;18.42;16.35;;;;;;;23.70;44.31;100490.09;1791003;77;21591;-78
2021/09/09 03:29:43;;;;;;;19.23;17.20;;;;;;;23.72;44.26;100488.47;1806596;77;21862;-76
2021/09/09 03:32:10;;;;;;;19.65;17.57;;;;;;;23.72;44.27;100485.25;1797026;79;21558;-76
2021/09/09 03:34:36;;;;;;;20.62;18.45;;;;;;;23.73;44.39;100489.59;1777445;77;21526;-75
2021/09/09 03:37:04;;;;;;;21.15;18.92;;;;;;;23.75;44.54;100492.89;1782133;77;21338;-75
2021/09/09 03:39:32;;;;;;;21.00;18.70;;;;;;;23.78;44.55;100497.55;1788507;79;21552;-75
2021/09/09 03:41:58;;;;;;;21.40;19.15;;;;;;;23.78;44.48;100498.43;1785926;77;21029;-73
2021/09/09 03:44:25;;;;;;;21.50;19.27;;;;;;;23.81;44.39;100498.48;1793463;79;21016;-76
2021/09/09 03:46:51;;;;;;;21.60;19.30;;;;;;;23.83;44.25;100508.56;1799247;77;21264;-75
2021/09/09 03:49:17;;;;;;;22.35;19.20;;;;;;;23.84;44.19;100500.19;1796440;79;21045;-76
2021/09/09 03:51:45;;;;;;;20.52;18.32;;;;;;;23.86;44.12;100501.31;1790059;77;21044;-77
2021/09/09 03:54:14;;;;;;;22.75;19.67;;;;;;;23.87;44.03;100507.02;1782990;79;21051;-75
2021/09/09 03:56:42;;;;;;;22.20;18.87;;;;;;;23.88;43.98;100508.69;1793198;78;21476;-76
2021/09/09 03:59:08;;;;;;;20.27;18.17;;;;;;;23.89;43.98;100513.03;1801877;77;21094;-75
2021/09/09 04:01:35;;;;;;;19.92;17.90;;;;;;;23.90;43.93;100505.20;1769336;80;21064;-74
2021/09/09 04:04:03;;;;;;;21.10;18.23;;;;;;;23.90;44.03;100505.20;1760014;80;20981;-78
2021/09/09 04:06:30;;;;;;;21.37;17.95;;;;;;;23.90;43.96;100507.91;1776774;80;21564;-77
2021/09/09 04:08:56;;;;;;;20.10;17.85;;;;;;;23.92;43.84;100507.14;1768733;80;21523;-77
2021/09/09 04:11:23;;;;;;;19.52;17.32;;;;;;;23.92;43.92;100507.95;1773539;80;21483;-77
2021/09/09 04:13:49;;;;;;;20.50;17.17;;;;;;;23.93;44.01;100506.06;1780361;80;20993;-75
2021/09/09 04:16:16;;;;;;;20.88;16.77;;;;;;;23.93;44.13;100501.48;1759386;80;21559;-76
2021/09/09 04:18:42;;;;;;;19.87;17.23;;;;;;;23.94;44.19;100501.77;1759830;80;21086;-78
2021/09/09 04:21:08;;;;;;;20.85;17.60;;;;;;;23.96;44.31;100501.53;1776429;79;21068;-76
2021/09/09 04:23:35;;;;;;;20.68;18.00;;;;;;;23.97;44.70;100498.27;1775460;80;21465;-77
2021/09/09 04:26:01;;;;;;;23.50;16.10;;;;;;;23.98;45.20;100499.40;1774568;80;21060;-78
2021/09/09 04:28:28;;;;;;;36.13;20.65;;;;;;;23.99;45.52;100498.35;1775260;80;21056;-76
2021/09/09 04:30:54;;;;;;;34.45;21.00;;;;;;;24.01;45.63;100498.94;1775083;80;21080;-78
2021/09/09 04:33:21;;;;;;;35.92;20.80;;;;;;;24.01;45.70;100500.29;1770235;79;21108;-75
2021/09/09 04:35:47;;;;;;;30.02;20.23;;;;;;;24.03;45.79;100497.31;1764962;80;21286;-77
2021/09/09 04:38:14;;;;;;;23.50;19.23;;;;;;;24.05;45.96;100489.75;1783457;80;21013;-78
2021/09/09 04:40:40;;;;;;;28.75;19.75;;;;;;;24.04;45.50;100490.30;1786654;78;21043;-78
2021/09/09 04:43:09;;;;;;;25.20;18.67;;;;;;;24.03;45.23;100485.10;1802239;78;21500;-79
2021/09/09 04:45:35;;;;;;;24.98;19.37;;;;;;;24.00;45.10;100486.95;1785057;78;21008;-78
2021/09/09 04:48:02;;;;;;;26.75;18.75;;;;;;;23.98;45.02;100486.38;1793156;78;21098;-78
2021/09/09 04:50:28;;;;;;;23.27;18.95;;;;;;;23.96;44.95;100481.72;1797558;78;21040;-78
2021/09/09 04:52:54;;;;;;;26.15;19.25;;;;;;;23.93;44.92;100486.56;1754710;80;21063;-78
2021/09/09 04:55:21;;;;;;;21.95;17.23;;;;;;;23.92;44.92;100483.54;1756724;78;21559;-77
2021/09/09 04:57:47;;;;;;;29.00;18.75;;;;;;;23.91;44.94;100478.34;1759570;78;21036;-77
2021/09/09 05:00:15;;;;;;;24.72;18.00;;;;;;;23.90;44.88;100479.42;1791997;77;21069;-78
2021/09/09 05:02:42;;;;;;;26.80;18.85;;;;;;;23.89;44.84;100479.11;1768738;77;21056;-79
2021/09/09 05:05:09;;;;;;;23.57;18.25;;;;;;;23.88;44.80;100482.37;1818660;77;21064;-78
2021/09/09 05:07:36;;;;;;;22.73;17.17;;;;;;;23.87;44.84;100477.98;1775588;77;21547;-77
2021/09/09 05:10:04;;;;;;;24.50;19.05;;;;;;;23.86;44.83;100480.42;1777300;78;21080;-78
2021/09/09 05:12:30;;;;;;;22.75;18.52;;;;;;;23.87;44.83;100473.10;1775384;77;21473;-79
2021/09/09 05:14:57;;;;;;;23.95;16.97;;;;;;;23.86;44.81;100480.42;1787248;78;21523;-78
2021/09/09 05:17:23;;;;;;;20.68;16.25;;;;;;;23.87;44.75;100478.53;1767466;78;22075;-80
2021/09/09 05:19:51;;;;;;;22.55;17.98;;;;;;;23.85;44.85;100469.27;1790978;77;21029;-79
2021/09/09 05:22:17;;;;;;;20.77;16.97;;;;;;;23.86;44.79;100483.14;1794708;77;21099;-78
2021/09/09 05:24:44;;;;;;;24.98;18.10;;;;;;;23.87;44.78;100483.41;1788792;77;21128;-79
2021/09/09 05:27:11;;;;;;;21.05;17.65;;;;;;;23.88;44.93;100482.91;1767900;79;21527;-79
2021/09/09 05:29:37;;;;;;;19.60;17.50;;;;;;;23.87;45.04;100479.34;1790168;77;21013;-79
2021/09/09 05:32:06;;;;;;;20.75;16.52;;;;;;;23.88;44.96;100479.66;1769151;79;21088;-78
2021/09/09 05:34:32;;;;;;;21.10;16.25;;;;;;;23.89;44.84;100475.89;1778367;77;21004;-79
2021/09/09 05:36:59;;;;;;;24.00;19.48;;;;;;;23.90;44.90;100474.00;1792895;77;21740;-78
2021/09/09 05:39:25;;;;;;;25.82;18.50;;;;;;;23.90;44.82;100477.52;1776099;77;21079;-78
2021/09/09 05:41:53;;;;;;;25.70;18.70;;;;;;;23.90;44.76;100485.67;1776599;78;21023;-80
2021/09/09 05:44:20;;;;;;;21.82;17.00;;;;;;;23.91;44.89;100476.48;1789419;77;21049;-79
2021/09/09 05:46:47;;;;;;;23.32;17.42;;;;;;;23.92;44.81;100479.47;1786350;77;21004;-77
2021/09/09 05:49:14;;;;;;;20.55;16.52;;;;;;;23.93;44.82;100477.57;1773360;78;21469;-80
2021/09/09 05:51:42;;;;;;;20.55;16.00;;;;;;;23.94;45.07;100479.23;1770345;77;21550;-77
2021/09/09 05:54:08;;;;;;;20.55;16.95;;;;;;;23.95;44.86;100476.80;1785140;78;21496;-78
2021/09/09 05:56:35;;;;;;;20.75;17.27;;;;;;;23.96;44.86;100474.93;1768614;77;21027;-76
2021/09/09 05:59:03;;;;;;;20.05;15.90;;;;;;;23.97;44.75;100474.70;1793247;77;21000;-77
2021/09/09 06:01:31;;;;;;;20.37;16.37;;;;;;;23.97;44.78;100479.28;1810309;77;21486;-77
2021/09/09 06:04:00;;;;;;;22.35;16.05;;;;;;;23.98;45.04;100476.34;1821071;77;21002;-77
2021/09/09 06:06:27;;;;;;;18.98;15.83;;;;;;;23.99;44.69;100469.86;1776978;77;21032;-80
2021/09/09 06:08:54;;;;;;;18.17;16.25;;;;;;;24.01;44.76;100470.44;1783084;78;21036;-79
2021/09/09 06:11:20;;;;;;;19.23;15.93;;;;;;;24.02;44.77;100473.97;1751043;80;21035;-77
2021/09/09 06:13:48;;;;;;;19.48;15.18;;;;;;;24.03;44.81;100466.11;1783137;77;21098;-79
2021/09/09 06:16:14;;;;;;;20.97;15.63;;;;;;;24.04;44.86;100467.23;1790416;77;21503;-80
2021/09/09 06:18:42;;;;;;;19.82;16.42;;;;;;;24.05;44.74;100470.76;1801770;77;21527;-78
2021/09/09 06:21:09;;;;;;;18.87;16.05;;;;;;;24.06;44.73;100471.06;1819896;77;21022;-78
2021/09/09 06:23:35;;;;;;;19.52;15.60;;;;;;;24.07;44.75;100469.48;1805723;79;21096;-78
2021/09/09 06:26:02;;;;;;;18.10;15.75;;;;;;;24.07;44.57;100466.77;1797132;77;21142;-78
2021/09/09 06:28:28;;;;;;;19.10;15.15;;;;;;;24.08;44.60;100471.11;1794125;77;20992;-79
2021/09/09 06:30:55;;;;;;;18.55;16.50;;;;;;;24.09;44.66;100466.53;1805046;77;21029;-78
2021/09/09 06:33:21;;;;;;;20.25;15.75;;;;;;;24.12;44.61;100474.17;1814157;77;20977;-78
2021/09/09 06:35:47;;;;;;;20.80;16.20;;;;;;;24.12;44.47;100470.92;1773943;77;21063;-78
2021/09/09 06:38:14;;;;;;;18.65;16.12;;;;;;;24.14;44.60;100468.81;1775038;78;22094;-78
2021/09/09 06:40:41;;;;;;;21.37;16.20;;;;;;;24.14;44.53;100476.96;1786485;77;20994;-79
2021/09/09 06:43:07;;;;;;;18.57;15.48;;;;;;;24.17;44.58;100477.55;1793479;79;21024;-78
2021/09/09 06:45:34;;;;;;;20.60;16.35;;;;;;;24.17;44.44;100479.72;1805271;77;21351;-77
2021/09/09 06:48:01;;;;;;;20.15;15.35;;;;;;;24.20;44.39;100479.76;1770875;77;21027;-80
2021/09/09 06:50:28;;;;;;;17.57;15.50;;;;;;;24.21;44.35;100483.59;1804408;77;21111;-78
2021/09/09 06:52:54;;;;;;;18.17;15.88;;;;;;;24.23;44.52;100490.97;1796509;77;21052;-77
2021/09/09 06:55:21;;;;;;;18.98;15.08;;;;;;;24.24;44.31;100495.34;1796312;77;21038;-76
2021/09/09 06:57:47;;;;;;;19.95;16.02;;;;;;;24.25;44.25;100490.19;1792387;78;21030;-77
2021/09/09 07:00:14;;;;;;;20.35;15.83;;;;;;;24.28;44.29;100494.30;1782101;79;21052;-77
2021/09/09 07:02:40;;;;;;;23.10;15.58;;;;;;;24.30;44.32;100500.34;1775896;80;21564;-78
2021/09/09 07:05:09;;;;;;;20.72;15.50;;;;;;;24.31;44.38;100498.73;1794757;78;21076;-77
2021/09/09 07:07:35;;;;;;;23.30;15.68;;;;;;;24.34;44.41;100495.54;1790233;78;20977;-76
2021/09/09 07:10:02;;;;;;;19.60;15.48;;;;;;;24.36;44.41;100502.09;1806957;78;21303;-77
2021/09/09 07:12:28;;;;;;;17.60;14.93;;;;;;;24.39;44.34;100507.03;1778761;80;21086;-78
2021/09/09 07:14:56;;;;;;;16.87;15.05;;;;;;;24.43;44.28;100504.66;1752215;80;21671;-76
2021/09/09 07:17:24;;;;;;;17.82;15.18;;;;;;;24.43;44.26;100500.05;1786196;79;21085;-79
2021/09/09 07:19:51;;;;;;;21.02;15.45;;;;;;;24.45;44.20;100502.52;1795794;78;21044;-77
2021/09/09 07:22:18;;;;;;;19.65;14.98;;;;;;;24.48;44.16;100499.34;1769999;78;21626;-78
2021/09/09 07:24:44;;;;;;;16.90;14.23;;;;;;;24.50;44.09;100506.70;1774440;79;21600;-78
2021/09/09 07:27:11;;;;;;;16.97;15.18;;;;;;;24.50;44.03;100498.56;1776599;78;21102;-72
2021/09/09 07:29:37;;;;;;;22.75;14.20;;;;;;;24.53;43.70;100503.02;1773581;80;21016;-74
2021/09/09 07:32:06;;;;;;;16.55;14.83;;;;;;;24.50;43.23;100504.81;1731793;80;21380;-73
2021/09/09 07:34:32;;;;;;;17.95;15.23;;;;;;;24.45;43.14;100506.59;1765726;80;21103;-73
2021/09/09 07:36:59;;;;;;;25.62;19.67;;;;;;;24.41;43.22;100502.17;1773099;79;21025;-71
2021/09/09 07:39:26;;;;;;;33.80;29.42;;;;;;;24.38;43.52;100505.91;1759743;80;21134;-71
2021/09/09 07:41:53;;;;;;;38.40;31.97;;;;;;;24.32;43.77;100512.61;1768938;80;21515;-72
2021/09/09 07:44:19;;;;;;;34.27;28.60;;;;;;;24.30;43.90;100511.20;1758580;80;21001;-73
2021/09/09 07:46:46;;;;;;;27.17;24.12;;;;;;;24.29;43.87;100505.47;1776878;80;21128;-72
2021/09/09 07:49:15;;;;;;;21.42;18.95;;;;;;;24.29;43.79;100509.55;1774258;79;21052;-76
2021/09/09 07:51:43;;;;;;;22.07;19.02;;;;;;;24.29;43.56;100514.97;1750782;80;22462;-74
2021/09/09 07:54:10;;;;;;;18.82;16.20;;;;;;;24.27;43.56;100512.49;1775683;79;21053;-71
2021/09/09 07:56:36;;;;;;;19.37;16.30;;;;;;;24.25;43.42;100512.45;1783053;80;21041;-73
2021/09/09 07:59:02;;;;;;;18.75;14.55;;;;;;;24.24;43.24;100516.22;1806109;78;21587;-74
2021/09/09 08:01:32;;;;;;;17.92;14.03;;;;;;;24.24;43.16;100514.86;1751103;78;21040;-74
2021/09/09 08:03:58;;;;;;;20.95;15.50;;;;;;;24.24;43.13;100512.14;1822484;77;21816;-73
2021/09/09 08:06:26;;;;;;;17.77;14.30;;;;;;;24.24;43.28;100505.36;1801634;77;21039;-73
2021/09/09 08:08:54;;;;;;;19.82;14.53;;;;;;;24.24;43.32;100513.50;1808787;77;21212;-74
2021/09/09 08:11:20;;;;;;;23.07;14.75;;;;;;;24.24;43.25;100510.28;1800523;77;21338;-70
2021/09/09 08:13:52;;;;;;;18.48;13.15;;;;;;;24.25;43.15;100501.05;1822262;77;21028;-72
2021/09/09 08:16:20;;;;;;;20.85;14.18;;;;;;;24.27;43.29;100502.99;1817637;77;21058;-70
2021/09/09 08:18:46;;;;;;;16.02;14.33;;;;;;;24.29;43.23;100503.57;1806310;77;21001;-70
2021/09/09 08:21:14;;;;;;;18.50;14.13;;;;;;;24.30;43.53;100498.99;1821286;77;21030;-71
2021/09/09 08:23:42;;;;;;;16.77;14.75;;;;;;;24.32;43.55;100503.11;1801830;77;21616;-72
2021/09/09 08:26:10;;;;;;;17.02;14.40;;;;;;;24.35;43.52;100503.14;1799195;77;21072;-72
2021/09/09 08:28:37;;;;;;;18.85;14.95;;;;;;;24.38;43.71;100502.67;1765958;79;21545;-69
2021/09/09 08:31:04;;;;;;;20.90;15.70;;;;;;;24.42;43.68;100501.66;1810049;77;21041;-71
2021/09/09 08:33:32;;;;;;;24.45;17.70;;;;;;;24.44;43.20;100509.85;1800605;77;21053;-72
2021/09/09 08:36:06;;;;;;;28.87;19.62;;;;;;;24.45;43.03;100502.52;1811328;77;21018;-73
2021/09/09 08:38:32;;;;;;;22.98;18.60;;;;;;;24.46;43.22;100498.22;1808058;78;21013;-72
2021/09/09 08:41:02;;;;;;;37.28;26.23;;;;;;;24.48;43.43;100490.64;1812883;77;21479;-73
2021/09/09 08:43:31;;;;;;;32.33;23.22;;;;;;;24.52;43.72;100497.81;1806462;77;20986;-72
2021/09/09 08:46:00;;;;;;;26.50;18.48;;;;;;;24.57;44.05;100496.56;1813987;77;21084;-72
2021/09/09 08:48:27;;;;;;;20.52;15.80;;;;;;;24.63;43.78;100491.52;1800279;77;21049;-73
2021/09/09 08:50:54;;;;;;;15.60;13.70;;;;;;;24.68;43.24;100490.77;1810218;77;21066;-75
2021/09/09 08:53:21;;;;;;;20.50;13.83;;;;;;;24.73;43.34;100494.41;1819547;77;21051;-73
2021/09/09 08:55:49;;;;;;;15.72;12.35;;;;;;;24.78;42.80;100494.20;1804737;77;21633;-74
2021/09/09 08:58:18;;;;;;;12.98;11.68;;;;;;;24.81;42.51;100495.91;1783065;78;21001;-72
2021/09/09 09:01:10;;;;;;;13.05;11.63;;;;;;;24.83;42.25;100493.77;1811139;77;21029;-72
2021/09/09 09:04:06;;;;;;;19.65;11.83;;;;;;;24.85;42.29;100490.81;1802168;77;20980;-73
2021/09/09 09:06:30;;;;;;;15.53;10.90;;;;;;;24.88;42.22;100492.52;1790356;77;21526;-73
2021/09/09 09:09:09;;;;;;;12.45;11.18;;;;;;;24.93;41.93;100494.48;1798656;77;21009;-73
2021/09/09 09:11:45;;;;;;;14.70;11.35;;;;;;;24.97;41.90;100488.84;1810037;77;21076;-72
2021/09/09 09:14:22;;;;;;;12.43;10.60;;;;;;;25.01;41.75;100485.10;1814044;78;20994;-72
2021/09/09 09:16:54;;;;;;;13.48;10.98;;;;;;;25.05;41.85;100485.74;1768399;80;21043;-73
2021/09/09 09:19:27;;;;;;;11.90;10.25;;;;;;;25.11;41.88;100487.98;1810221;78;21113;-75
2021/09/09 09:21:59;;;;;;;;;;;;;;;25.17;41.30;100489.74;1747933;79;21742;-76
2021/09/09 09:24:32;;;;;;;11.63;10.53;;;;;;;25.22;41.18;100483.55;1721520;81;20186;-76
2021/09/09 09:27:15;;;;;;;12.33;9.93;;;;;;;25.24;41.05;100478.17;1718519;82;21688;-73
2021/09/09 09:29:45;;;;;;;13.15;10.82;;;;;;;25.27;41.05;100474.16;1714956;82;21656;-72
2021/09/09 09:32:18;;;;;;;12.45;9.58;;;;;;;25.34;40.98;100474.79;1779578;78;21506;-73
2021/09/09 09:34:45;;;;;;;;;;;;;;;25.41;40.72;100473.28;1788514;78;21063;-72
2021/09/09 09:37:22;;;;;;;13.20;9.90;;;;;;;25.46;40.58;100469.29;1794558;77;21430;-72
2021/09/09 09:39:51;;;;;;;11.60;10.35;;;;;;;25.47;40.56;100470.92;1799672;78;21162;-71
2021/09/09 09:42:17;;;;;;;11.57;9.78;;;;;;;25.55;40.31;100477.83;1791479;78;21570;-71
2021/09/09 09:44:48;;;;;;;11.83;10.10;;;;;;;25.59;40.13;100466.19;1750902;79;21151;-71
2021/09/09 09:47:20;;;;;;;11.40;9.70;;;;;;;25.66;40.01;100460.59;1758990;79;21019;-73
2021/09/09 09:49:48;;;;;;;11.03;9.95;;;;;;;25.72;40.04;100464.20;1735637;81;21044;-73
2021/09/09 09:52:29;;;;;;;12.53;10.13;;;;;;;25.78;39.96;100453.67;1731887;81;21045;-69
2021/09/09 09:54:59;;;;;;;11.00;9.30;;;;;;;25.83;39.69;100453.20;1740810;82;21792;-70
2021/09/09 09:57:27;;;;;;;13.30;11.43;;;;;;;25.88;39.37;100452.44;1752248;80;21237;-72
2021/09/09 09:59:54;;;;;;;39.92;34.15;;;;;;;25.94;39.07;100462.88;1806669;77;21575;-71
2021/09/09 10:02:21;;;;;;;20.00;17.73;;;;;;;25.97;38.89;100446.06;1786599;77;21064;-74
2021/09/09 10:04:49;;;;;;;15.80;11.83;;;;;;;26.01;38.94;100449.37;1797638;77;21662;-72
2021/09/09 10:07:16;;;;;;;12.60;9.80;;;;;;;26.07;38.75;100458.42;1819375;77;21107;-72
2021/09/09 10:09:43;;;;;;;11.45;10.25;;;;;;;26.13;38.44;100445.70;1818232;77;21140;-70
2021/09/09 10:12:12;;;;;;;13.78;10.20;;;;;;;26.17;38.43;100454.45;1814305;79;21045;-71
2021/09/09 10:14:49;;;;;;;11.60;10.40;;;;;;;26.23;38.30;100449.38;1808189;77;21587;-70
2021/09/09 10:17:20;;;;;;;11.80;10.08;;;;;;;26.28;38.34;100441.79;1808578;77;22061;-73
2021/09/09 10:19:51;;;;;;;;;;;;;;;26.35;38.35;100443.78;1792504;77;21046;-76
2021/09/09 10:22:20;;;;;;;12.35;9.50;;;;;;;26.41;38.04;100430.50;1809147;79;21134;-73
2021/09/09 10:24:51;;;;;;;11.35;9.43;;;;;;;26.43;38.09;100439.23;1771703;77;21552;-70
2021/09/09 10:27:22;;;;;;;10.72;9.53;;;;;;;26.49;37.84;100431.94;1810020;77;21073;-70
2021/09/09 10:30:02;;;;;;;10.85;8.80;;;;;;;26.55;37.71;100432.81;1813974;77;21029;-71
2021/09/09 10:32:45;;;;;;;11.97;10.10;;;;;;;26.61;37.83;100431.80;1790443;78;21100;-71
2021/09/09 10:35:22;;;;;;;10.90;9.80;;;;;;;26.67;37.64;100425.32;1796115;77;21964;-69
2021/09/09 10:37:53;;;;;;;11.45;10.20;;;;;;;26.75;37.66;100424.02;1797960;78;21049;-71
2021/09/09 10:40:35;;;;;;;10.30;9.30;;;;;;;26.79;37.55;100424.63;1812492;77;21049;-71
2021/09/09 10:43:09;;;;;;;9.88;8.88;;;;;;;26.85;37.39;100437.22;1801311;79;21095;-70
2021/09/09 10:45:41;;;;;;;13.62;11.15;;;;;;;26.91;37.06;100413.55;1774997;79;21073;-71
2021/09/09 10:48:11;;;;;;;12.85;10.35;;;;;;;26.97;37.03;100413.87;1766924;80;21154;-72
2021/09/09 10:50:38;;;;;;;11.65;10.13;;;;;;;27.03;37.34;100405.19;1747395;80;21089;-72
2021/09/09 10:53:07;;;;;;;12.65;11.15;;;;;;;27.11;37.59;100401.15;1754239;79;21137;-71
2021/09/09 10:55:36;;;;;;;12.43;9.90;;;;;;;27.19;37.62;100410.20;1771791;79;21047;-71
2021/09/09 10:58:27;;;;;;;12.30;10.98;;;;;;;27.26;37.83;100402.09;1775465;79;21649;-72
2021/09/09 11:00:58;;;;;;;12.73;9.98;;;;;;;27.34;37.80;100407.60;1765250;79;21118;-71
2021/09/09 11:03:43;;;;;;;11.48;9.35;;;;;;;27.41;37.80;100403.27;1766772;79;21081;-70
2021/09/09 11:06:16;;;;;;;12.25;9.43;;;;;;;27.46;37.90;100409.57;1757479;80;21070;-71
2021/09/09 11:08:47;;;;;;;14.87;10.50;;;;;;;27.52;37.09;100396.78;1729660;80;21067;-70
2021/09/09 11:11:24;;;;;;;10.93;8.98;;;;;;;27.58;37.57;100396.27;1720460;80;21068;-71
2021/09/09 11:14:01;;;;;;;11.48;9.43;;;;;;;27.61;37.16;100387.56;1752121;80;21160;-71
2021/09/09 11:17:24;;;;;;;12.70;10.05;;;;;;;27.73;36.87;100376.42;1787266;79;22721;-71